Metar z pełnej godziny Komunikat METAR ze strony awiacja.imgw.pl Metar G00 EPLB METAR EPLB 162200Z 13005KT 9999 OVC017 M01/M02 Q1020 =